Time;durP1;ratioP1;P1;durP2;ratioP2;P2;SDS_P1;SDS_P2;PMS_P1;PMS_P2;Temp;Humidity;BMP_temperature;BMP_pressure;BME280_temperature;BME280_humidity;BME280_pressure;Samples;Min_cycle;Max_cycle;Signal;HPM_P1;HPM_P2
2022/06/28 17:42:14;;;;;;;0.00;0.00;;;;;;;;;;5070715;27;21055;-67
2022/06/28 17:44:41;;;;;;;0.00;0.00;;;;;;;;;;5060735;28;20208;-65
2022/06/28 17:47:08;;;;;;;0.00;0.00;;;;;;;;;;5065524;28;20255;-65
2022/06/28 17:49:34;;;;;;;0.00;0.00;;;;;;;;;;5060027;28;20214;-64
2022/06/28 17:52:05;;;;;;;0.00;0.00;;;;;;;;;;5064625;28;20242;-65
2022/06/28 17:54:32;;;;;;;0.00;0.00;;;;;;;;;;5060207;28;20246;-70
2022/06/28 17:56:59;;;;;;;0.08;0.08;;;;;;;;;;5063920;28;20239;-72
2022/06/28 17:59:27;;;;;;;0.00;0.00;;;;;;;;;;5060680;28;20258;-71
2022/06/28 18:01:54;;;;;;;0.00;0.00;;;;;;;;;;5063386;28;20396;-72
2022/06/28 18:04:21;;;;;;;0.00;0.00;;;;;;;;;;5061739;28;20196;-72
2022/06/28 18:06:47;;;;;;;0.00;0.00;;;;;;;;;;5062381;28;20250;-73
2022/06/28 18:09:15;;;;;;;0.00;0.00;;;;;;;;;;5062039;28;20216;-72
2022/06/28 18:11:41;;;;;;;0.00;0.00;;;;;;;;;;5061651;28;20240;-71
2022/06/28 18:14:08;;;;;;;0.00;0.00;;;;;;;;;;5062099;28;20212;-69
2022/06/28 18:16:36;;;;;;;0.00;0.00;;;;;;;;;;5067459;28;20257;-71
2022/06/28 18:19:03;;;;;;;0.00;0.00;;;;;;;;;;5063500;28;20204;-71
2022/06/28 18:21:30;;;;;;;0.00;0.00;;;;;;;;;;5059688;28;20239;-72
2022/06/28 18:24:02;;;;;;;0.00;0.00;;;;;;;;;;5063651;28;20378;-71
2022/06/28 18:26:28;;;;;;;0.00;0.00;;;;;;;;;;5059895;28;20299;-72
2022/06/28 18:28:55;;;;;;;0.00;0.00;;;;;;;;;;5064122;28;20224;-72
2022/06/28 18:31:21;;;;;;;0.00;0.00;;;;;;;;;;5058472;28;20244;-80
2022/06/28 18:33:50;;;;;;;0.00;0.00;;;;;;;;;;5064819;28;20204;-79
2022/06/28 18:36:19;;;;;;;0.00;0.00;;;;;;;;;;5057200;28;20289;-80
2022/06/28 18:38:45;;;;;;;0.00;0.00;;;;;;;;;;5065443;28;20215;-69
2022/06/28 18:41:12;;;;;;;0.00;0.00;;;;;;;;;;5056968;28;20352;-73
2022/06/28 18:43:38;;;;;;;0.00;0.00;;;;;;;;;;5065908;28;20247;-71
2022/06/28 18:46:05;;;;;;;0.00;0.00;;;;;;;;;;5056132;28;20309;-72
2022/06/28 18:48:31;;;;;;;0.00;0.00;;;;;;;;;;5066122;28;20215;-72
2022/06/28 18:50:59;;;;;;;0.00;0.00;;;;;;;;;;5054988;28;20258;-73
2022/06/28 18:53:26;;;;;;;0.00;0.00;;;;;;;;;;5054453;28;20236;-73
2022/06/28 18:55:52;;;;;;;0.00;0.00;;;;;;;;;;5041203;28;20255;-72
2022/06/28 18:58:21;;;;;;;0.00;0.00;;;;;;;;;;5054660;28;20272;-74
2022/06/28 19:00:47;;;;;;;0.00;0.00;;;;;;;;;;5039815;28;20259;-74
2022/06/28 19:03:16;;;;;;;0.00;0.00;;;;;;;;;;5054858;28;20203;-73
2022/06/28 19:05:42;;;;;;;0.00;0.00;;;;;;;;;;5039397;28;20255;-78
2022/06/28 19:08:10;;;;;;;0.00;0.00;;;;;;;;;;5055378;28;20435;-77
2022/06/28 19:10:37;;;;;;;0.00;0.00;;;;;;;;;;5038694;28;20407;-75
2022/06/28 19:13:03;;;;;;;0.00;0.00;;;;;;;;;;5056083;28;20496;-79
2022/06/28 19:15:30;;;;;;;0.00;0.00;;;;;;;;;;5037839;28;20255;-72
2022/06/28 19:17:57;;;;;;;0.00;0.00;;;;;;;;;;5056797;28;20340;-75
2022/06/28 19:20:24;;;;;;;0.00;0.00;;;;;;;;;;5037024;28;20204;-75
2022/06/28 19:22:52;;;;;;;0.00;0.00;;;;;;;;;;5057553;28;20212;-74
2022/06/28 19:25:21;;;;;;;0.00;0.00;;;;;;;;;;5035844;28;20254;-76
2022/06/28 19:27:48;;;;;;;0.00;0.00;;;;;;;;;;5057885;28;20209;-75
2022/06/28 19:30:15;;;;;;;0.00;0.00;;;;;;;;;;5035213;28;20246;-75
2022/06/28 19:32:41;;;;;;;0.00;0.00;;;;;;;;;;5058305;28;20207;-76
2022/06/28 19:35:09;;;;;;;0.00;0.00;;;;;;;;;;5033986;28;20277;-77
2022/06/28 19:37:36;;;;;;;0.00;0.00;;;;;;;;;;5059383;28;20209;-78
2022/06/28 19:40:02;;;;;;;0.00;0.00;;;;;;;;;;5044061;28;20453;-78
2022/06/28 19:42:30;;;;;;;0.00;0.00;;;;;;;;;;5049282;28;20433;-79
2022/06/28 19:44:57;;;;;;;0.00;0.00;;;;;;;;;;5044259;28;20301;-79
2022/06/28 19:47:24;;;;;;;0.00;0.00;;;;;;;;;;5049757;28;20239;-79
2022/06/28 19:49:51;;;;;;;0.00;0.00;;;;;;;;;;5044991;28;20205;-78
2022/06/28 19:52:20;;;;;;;0.00;0.00;;;;;;;;;;5050475;28;20243;-79
2022/06/28 19:54:47;;;;;;;0.00;0.00;;;;;;;;;;5043794;28;20466;-79
2022/06/28 19:57:16;;;;;;;0.00;0.00;;;;;;;;;;5049669;28;20239;-79
2022/06/28 19:59:44;;;;;;;0.00;0.00;;;;;;;;;;5043954;28;20232;-78
2022/06/28 20:02:12;;;;;;;0.00;0.00;;;;;;;;;;5048559;28;20236;-78
2022/06/28 20:04:39;;;;;;;0.00;0.00;;;;;;;;;;5043129;28;20229;-77
2022/06/28 20:07:05;;;;;;;0.00;0.00;;;;;;;;;;5048417;28;20252;-78
2022/06/28 20:09:32;;;;;;;0.00;0.00;;;;;;;;;;5044472;28;20234;-78
2022/06/28 20:11:59;;;;;;;0.00;0.00;;;;;;;;;;5047492;28;20235;-80
2022/06/28 20:14:26;;;;;;;0.00;0.00;;;;;;;;;;5044905;28;20363;-80
2022/06/28 20:16:54;;;;;;;0.00;0.00;;;;;;;;;;5046930;28;20247;-77
2022/06/28 20:19:20;;;;;;;0.00;0.00;;;;;;;;;;5045411;28;20209;-77
2022/06/28 20:21:49;;;;;;;0.00;0.00;;;;;;;;;;5046739;28;20263;-78
2022/06/28 20:24:16;;;;;;;0.00;0.00;;;;;;;;;;5045790;28;20212;-72
2022/06/28 20:26:43;;;;;;;0.00;0.00;;;;;;;;;;5045460;28;20308;-69
2022/06/28 20:29:09;;;;;;;0.00;0.00;;;;;;;;;;5045853;28;20224;-71
2022/06/28 20:31:36;;;;;;;0.00;0.00;;;;;;;;;;5043430;28;20307;-71
2022/06/28 20:34:04;;;;;;;0.00;0.00;;;;;;;;;;5049032;28;20393;-70
2022/06/28 20:36:30;;;;;;;0.00;0.00;;;;;;;;;;5043681;28;20449;-71
2022/06/28 20:38:56;;;;;;;0.00;0.00;;;;;;;;;;5047699;28;20207;-72
2022/06/28 20:44:09;;;;;;;0.00;0.00;;;;;;;;;;5046592;28;20239;-72
2022/06/28 20:46:36;;;;;;;0.00;0.00;;;;;;;;;;5044706;28;20247;-71
2022/06/28 20:49:04;;;;;;;0.00;0.00;;;;;;;;;;5047409;28;20438;-72
2022/06/28 20:51:31;;;;;;;0.00;0.00;;;;;;;;;;5044496;28;20247;-72
2022/06/28 20:53:58;;;;;;;0.00;0.00;;;;;;;;;;5047474;28;20405;-71
2022/06/28 20:56:25;;;;;;;0.00;0.00;;;;;;;;;;5043022;28;20247;-72
2022/06/28 20:58:51;;;;;;;0.00;0.00;;;;;;;;;;5048407;28;20205;-70
2022/06/28 21:01:18;;;;;;;0.00;0.00;;;;;;;;;;5042283;28;20235;-70
2022/06/28 21:03:44;;;;;;;0.00;0.00;;;;;;;;;;5041882;28;20201;-70
2022/06/28 21:06:13;;;;;;;0.00;0.00;;;;;;;;;;5041331;28;20240;-70
2022/06/28 21:08:40;;;;;;;0.00;0.00;;;;;;;;;;5049502;28;20205;-71
2022/06/28 21:11:07;;;;;;;0.00;0.00;;;;;;;;;;5040876;28;20589;-70
2022/06/28 21:13:33;;;;;;;0.00;0.00;;;;;;;;;;5050084;28;20228;-69
2022/06/28 21:16:00;;;;;;;0.00;0.00;;;;;;;;;;5039620;28;20248;-69
2022/06/28 21:18:26;;;;;;;0.00;0.00;;;;;;;;;;5051271;28;20208;-69
2022/06/28 21:20:53;;;;;;;0.00;0.00;;;;;;;;;;5039075;28;20259;-68
2022/06/28 21:23:21;;;;;;;0.00;0.00;;;;;;;;;;5051776;28;20276;-70
2022/06/28 21:25:48;;;;;;;0.03;0.03;;;;;;;;;;5038473;28;20243;-69
2022/06/28 21:28:15;;;;;;;0.00;0.00;;;;;;;;;;5052190;28;20205;-68
2022/06/28 21:30:41;;;;;;;0.00;0.00;;;;;;;;;;5037315;28;20343;-68
2022/06/28 21:33:08;;;;;;;0.00;0.00;;;;;;;;;;5053424;28;20383;-68
2022/06/28 21:35:35;;;;;;;0.00;0.00;;;;;;;;;;5036270;28;20512;-67
2022/06/28 21:38:02;;;;;;;0.00;0.00;;;;;;;;;;5054305;28;20193;-66
2022/06/28 21:40:30;;;;;;;0.00;0.00;;;;;;;;;;5035258;28;20306;-67
2022/06/28 21:42:59;;;;;;;0.00;0.00;;;;;;;;;;5054712;28;20242;-66
2022/06/28 21:45:25;;;;;;;0.00;0.00;;;;;;;;;;5035226;28;20308;-67
2022/06/28 21:47:52;;;;;;;0.00;0.00;;;;;;;;;;5055138;28;20193;-67
2022/06/28 21:50:18;;;;;;;0.00;0.00;;;;;;;;;;5033910;28;20212;-70
2022/06/28 21:52:45;;;;;;;0.00;0.00;;;;;;;;;;5055926;28;20189;-69
2022/06/28 21:55:14;;;;;;;0.00;0.00;;;;;;;;;;5032953;28;20270;-71
2022/06/28 21:57:42;;;;;;;0.00;0.00;;;;;;;;;;5056427;28;20213;-72
2022/06/28 22:00:09;;;;;;;0.00;0.00;;;;;;;;;;5033902;28;20333;-73
2022/06/28 22:02:35;;;;;;;0.00;0.00;;;;;;;;;;5057239;28;20459;-72
2022/06/28 22:05:02;;;;;;;0.00;0.00;;;;;;;;;;5042137;28;20297;-70
2022/06/28 22:07:28;;;;;;;0.00;0.00;;;;;;;;;;5047453;28;20303;-73
2022/06/28 22:09:54;;;;;;;0.10;0.10;;;;;;;;;;5042490;28;20271;-71
2022/06/28 22:12:21;;;;;;;0.00;0.00;;;;;;;;;;5047570;28;20582;-71
2022/06/28 22:14:52;;;;;;;0.00;0.00;;;;;;;;;;5042349;28;20212;-71
2022/06/28 22:17:18;;;;;;;0.00;0.00;;;;;;;;;;5047299;28;20250;-70
2022/06/28 22:19:45;;;;;;;0.00;0.00;;;;;;;;;;5042252;28;20205;-71
2022/06/28 22:22:11;;;;;;;0.00;0.00;;;;;;;;;;5047471;28;20290;-71
2022/06/28 22:24:39;;;;;;;0.00;0.00;;;;;;;;;;5042392;28;20394;-71
2022/06/28 22:27:05;;;;;;;0.00;0.00;;;;;;;;;;5047467;28;20248;-71
2022/06/28 22:29:33;;;;;;;0.00;0.00;;;;;;;;;;5045894;28;20231;-72
2022/06/28 22:32:01;;;;;;;0.00;0.00;;;;;;;;;;5050224;28;20443;-71
2022/06/28 22:34:28;;;;;;;0.00;0.00;;;;;;;;;;5046582;28;20231;-72
2022/06/28 22:36:54;;;;;;;0.00;0.00;;;;;;;;;;5049202;28;20259;-71
2022/06/28 22:39:20;;;;;;;0.00;0.00;;;;;;;;;;5047008;28;20211;-72
2022/06/28 22:41:46;;;;;;;0.00;0.00;;;;;;;;;;5047114;28;20514;-71
2022/06/28 22:44:13;;;;;;;0.00;0.00;;;;;;;;;;5048992;28;20211;-72
2022/06/28 22:46:39;;;;;;;0.00;0.00;;;;;;;;;;5046993;28;20259;-71
2022/06/28 22:49:07;;;;;;;0.00;0.00;;;;;;;;;;5048994;28;20209;-70
2022/06/28 22:51:33;;;;;;;0.00;0.00;;;;;;;;;;5046268;28;20239;-72
2022/06/28 22:54:00;;;;;;;0.00;0.00;;;;;;;;;;5049720;28;20296;-72
2022/06/28 22:56:26;;;;;;;0.00;0.00;;;;;;;;;;5045118;28;20251;-73
2022/06/28 22:58:52;;;;;;;0.00;0.00;;;;;;;;;;5050149;28;20239;-71
2022/06/28 23:01:19;;;;;;;0.00;0.00;;;;;;;;;;5044328;28;20246;-72
2022/06/28 23:03:47;;;;;;;0.00;0.00;;;;;;;;;;5050926;28;20323;-70
2022/06/28 23:06:14;;;;;;;0.00;0.00;;;;;;;;;;5043788;28;20270;-72
2022/06/28 23:08:41;;;;;;;0.00;0.00;;;;;;;;;;5051866;28;20212;-72
2022/06/28 23:11:07;;;;;;;0.00;0.00;;;;;;;;;;5043042;28;20247;-72
2022/06/28 23:13:35;;;;;;;0.00;0.00;;;;;;;;;;5052645;28;20205;-72
2022/06/28 23:16:02;;;;;;;0.00;0.00;;;;;;;;;;5042144;28;20251;-72
2022/06/28 23:18:29;;;;;;;0.00;0.00;;;;;;;;;;5053105;28;20211;-70
2022/06/28 23:20:55;;;;;;;0.00;0.00;;;;;;;;;;5040760;28;20239;-71
2022/06/28 23:23:23;;;;;;;0.00;0.00;;;;;;;;;;5053728;28;20235;-72
2022/06/28 23:25:49;;;;;;;0.00;0.00;;;;;;;;;;5040478;28;20242;-71
2022/06/28 23:28:16;;;;;;;0.00;0.00;;;;;;;;;;5054483;28;20396;-71
2022/06/28 23:30:42;;;;;;;0.00;0.00;;;;;;;;;;5039400;28;20246;-72
2022/06/28 23:33:09;;;;;;;0.00;0.00;;;;;;;;;;5055403;28;20207;-72
2022/06/28 23:35:36;;;;;;;0.00;0.00;;;;;;;;;;5038108;28;20487;-71
2022/06/28 23:38:02;;;;;;;0.00;0.00;;;;;;;;;;5056264;28;20209;-72
2022/06/28 23:40:30;;;;;;;0.00;0.00;;;;;;;;;;5037487;28;20555;-70
2022/06/28 23:42:56;;;;;;;0.00;0.00;;;;;;;;;;5056694;28;20582;-72
2022/06/28 23:45:23;;;;;;;0.00;0.00;;;;;;;;;;5036892;28;20209;-71
2022/06/28 23:47:49;;;;;;;0.00;0.00;;;;;;;;;;5057358;28;20212;-72
2022/06/28 23:50:16;;;;;;;0.00;0.00;;;;;;;;;;5035867;28;20449;-70
2022/06/28 23:52:42;;;;;;;0.10;0.10;;;;;;;;;;5058134;28;20488;-72
2022/06/28 23:55:15;;;;;;;0.00;0.00;;;;;;;;;;5034731;28;20216;-70
2022/06/28 23:57:44;;;;;;;0.00;0.00;;;;;;;;;;5058138;28;20276;-71
